createdAt,value
2018-04-29T00:01:33.904Z,99732
2018-04-29T00:06:36.166Z,99723
2018-04-29T00:11:37.636Z,99725
2018-04-29T00:16:40.081Z,99732
2018-04-29T00:21:41.615Z,99747
2018-04-29T00:26:43.301Z,99746
2018-04-29T00:31:44.959Z,99748
2018-04-29T00:36:46.483Z,99738
2018-04-29T00:41:47.995Z,99742
2018-04-29T00:46:49.621Z,99736
2018-04-29T00:52:08.488Z,99722
2018-04-29T00:57:10.086Z,99727
2018-04-29T01:02:12.391Z,99717
2018-04-29T01:07:14.693Z,99715
2018-04-29T01:12:16.221Z,99715
2018-04-29T01:17:21.534Z,99728
2018-04-29T01:22:24.123Z,99720
2018-04-29T01:27:26.967Z,99715
2018-04-29T01:32:30.080Z,99708
2018-04-29T01:37:33.211Z,99699
2018-04-29T01:42:34.811Z,99694
2018-04-29T01:47:36.335Z,99692
2018-04-29T01:52:37.853Z,99674
2018-04-29T01:57:46.405Z,99665
2018-04-29T02:02:50.153Z,99666
2018-04-29T02:07:51.700Z,99655
2018-04-29T02:12:53.232Z,99653
2018-04-29T02:17:54.779Z,99646
2018-04-29T02:22:56.414Z,99640
2018-04-29T02:27:58.730Z,99637
2018-04-29T02:33:00.271Z,99633
2018-04-29T02:38:02.515Z,99627
2018-04-29T02:43:03.986Z,99629
2018-04-29T02:48:05.556Z,99611
2018-04-29T02:53:07.192Z,99605
2018-04-29T02:58:08.702Z,99604
2018-04-29T03:03:10.276Z,99605
2018-04-29T03:08:11.825Z,99577
2018-04-29T03:13:13.396Z,99578
2018-04-29T03:18:14.946Z,99577
2018-04-29T03:23:16.463Z,99556
2018-04-29T03:28:17.995Z,99546
2018-04-29T03:33:19.450Z,99546
2018-04-29T03:38:20.998Z,99573
2018-04-29T03:43:22.730Z,99561
2018-04-29T03:48:24.261Z,99540
2018-04-29T03:53:25.780Z,99549
2018-04-29T04:14:33.768Z,99539
2018-04-29T04:19:35.292Z,99530
2018-04-29T04:24:36.888Z,99526
2018-04-29T04:29:38.447Z,99503
2018-04-29T04:34:40.017Z,99515
2018-04-29T04:39:41.563Z,99512
2018-04-29T04:44:43.156Z,99498
2018-04-29T04:49:44.740Z,99510
2018-04-29T04:54:46.685Z,99532
2018-04-29T04:59:48.423Z,99535
2018-04-29T05:04:50.023Z,99537
2018-04-29T05:09:51.641Z,99528
2018-04-29T05:14:53.340Z,99545
2018-04-29T05:19:55.653Z,99562
2018-04-29T05:24:57.219Z,99573
2018-04-29T05:29:58.764Z,99590
2018-04-29T05:35:00.952Z,99595
2018-04-29T05:40:02.560Z,99604
2018-04-29T05:45:04.392Z,99648
2018-04-29T05:50:06.633Z,99662
2018-04-29T05:55:08.286Z,99630
2018-04-29T06:00:09.898Z,99597
2018-04-29T06:05:11.455Z,99548
2018-04-29T06:10:13.046Z,99444
2018-04-29T06:15:15.377Z,99423
2018-04-29T06:20:16.912Z,99464
2018-04-29T06:25:19.242Z,99462
2018-04-29T06:30:20.770Z,99429
2018-04-29T06:35:23.116Z,99437
2018-04-29T06:40:24.657Z,99436
2018-04-29T06:45:26.209Z,99501
2018-04-29T06:50:27.809Z,99493
2018-04-29T06:55:29.398Z,99489
2018-04-29T07:00:30.872Z,99489
2018-04-29T07:05:32.412Z,99472
2018-04-29T07:10:34.143Z,99508
2018-04-29T07:15:35.790Z,99548
2018-04-29T07:20:38.044Z,99606
2018-04-29T07:25:39.561Z,99626
2018-04-29T07:30:41.849Z,99593
2018-04-29T07:35:43.344Z,99567
2018-04-29T07:40:44.988Z,99520
2018-04-29T07:45:46.699Z,99389
2018-04-29T07:50:48.269Z,99394
2018-04-29T07:55:49.815Z,99452
2018-04-29T08:00:51.494Z,99514
2018-04-29T08:05:53.766Z,99551
2018-04-29T08:10:56.038Z,99582
2018-04-29T08:15:58.262Z,99596
2018-04-29T08:20:59.832Z,99592
2018-04-29T08:26:01.369Z,99591
2018-04-29T08:31:04.220Z,99591
2018-04-29T08:36:05.877Z,99606
2018-04-29T08:41:07.676Z,99607
2018-04-29T08:46:09.234Z,99600
2018-04-29T08:51:10.809Z,99534
2018-04-29T08:56:12.375Z,99461
2018-04-29T09:01:13.906Z,99484
2018-04-29T09:06:15.542Z,99487
2018-04-29T09:11:17.233Z,99496
2018-04-29T09:16:18.918Z,99534
2018-04-29T09:21:20.600Z,99506
2018-04-29T09:26:22.254Z,99455
2018-04-29T09:31:23.950Z,99432
2018-04-29T09:36:28.159Z,99434
2018-04-29T09:41:33.465Z,99413
2018-04-29T09:46:38.448Z,99414
2018-04-29T09:51:42.015Z,99426
2018-04-29T09:56:46.160Z,99430
2018-04-29T10:01:53.257Z,99423
2018-04-29T10:07:04.284Z,99412
2018-04-29T10:12:10.201Z,99413
2018-04-29T10:17:17.964Z,99420
2018-04-29T10:22:20.664Z,99406
2018-04-29T10:27:22.352Z,99412
2018-04-29T10:32:24.212Z,99389
2018-04-29T10:37:26.157Z,99373
2018-04-29T10:48:03.823Z,99356
2018-04-29T10:53:05.891Z,99346
2018-04-29T10:58:14.340Z,99351
2018-04-29T11:03:20.727Z,99327
2018-04-29T11:08:27.214Z,99311
2018-04-29T11:13:34.065Z,99315
2018-04-29T11:18:43.934Z,99309
2018-04-29T11:23:50.180Z,99298
2018-04-29T11:28:56.592Z,99280
2018-04-29T11:34:04.463Z,99264
2018-04-29T11:39:07.590Z,99265
2018-04-29T11:44:09.195Z,99251
2018-04-29T11:49:11.143Z,99264
2018-04-29T11:54:13.585Z,99249
2018-04-29T11:59:15.295Z,99254
2018-04-29T12:04:17.148Z,99255
2018-04-29T12:09:19.403Z,99251
2018-04-29T12:14:25.679Z,99234
2018-04-29T12:19:38.031Z,99228
2018-04-29T12:24:45.061Z,99215
2018-04-29T12:29:51.929Z,99211
2018-04-29T12:35:00.039Z,99198
2018-04-29T12:40:07.525Z,99194
2018-04-29T12:50:59.432Z,99172
2018-04-29T12:56:03.588Z,99159
2018-04-29T13:06:54.055Z,99111
2018-04-29T13:11:55.664Z,99105
2018-04-29T13:17:00.246Z,99086
2018-04-29T13:22:05.397Z,99075
2018-04-29T13:27:08.276Z,99059
2018-04-29T13:32:09.880Z,99049
2018-04-29T13:37:11.427Z,99047
2018-04-29T13:42:13.008Z,99037
2018-04-29T13:58:26.639Z,99000
2018-04-29T14:03:28.487Z,98984
2018-04-29T14:08:30.955Z,98978
2018-04-29T14:13:32.659Z,98968
2018-04-29T14:24:19.430Z,98944
2018-04-29T14:29:21.813Z,98939
2018-04-29T14:34:23.384Z,98926
2018-04-29T14:39:25.685Z,98924
2018-04-29T14:44:29.857Z,98929
2018-04-29T14:49:48.162Z,98921
2018-04-29T14:54:50.992Z,98903
2018-04-29T14:59:52.650Z,98897
2018-04-29T15:04:54.196Z,98885
2018-04-29T15:09:56.449Z,98895
2018-04-29T15:15:00.319Z,98897
2018-04-29T15:20:02.080Z,98886
2018-04-29T15:25:13.214Z,98874
2018-04-29T15:30:15.589Z,98871
2018-04-29T15:35:17.148Z,98865
2018-04-29T15:40:18.705Z,98856
2018-04-29T15:45:30.255Z,98850
2018-04-29T15:50:32.683Z,98832
2018-04-29T15:55:34.738Z,98808
2018-04-29T16:00:36.300Z,98809
2018-04-29T16:05:38.323Z,98807
2018-04-29T16:10:40.858Z,98796
2018-04-29T16:26:44.689Z,98753
2018-04-29T16:31:46.779Z,98750
2018-04-29T16:36:49.272Z,98732
2018-04-29T16:41:51.614Z,98731
2018-04-29T16:46:53.380Z,98728
2018-04-29T16:51:59.580Z,98721
2018-04-29T16:57:02.091Z,98717
2018-04-29T17:02:05.463Z,98714
2018-04-29T17:12:42.853Z,98698
2018-04-29T17:34:30.417Z,98642
2018-04-29T17:39:32.297Z,98637
2018-04-29T17:44:34.754Z,98626
2018-04-29T17:49:38.249Z,98617
2018-04-29T17:55:08.760Z,98619
2018-04-29T18:00:32.981Z,98598
2018-04-29T18:05:34.655Z,98594
2018-04-29T18:21:48.410Z,98570
2018-04-29T18:26:50.001Z,98550
2018-04-29T18:31:54.154Z,98555
2018-04-29T18:36:56.303Z,98535
2018-04-29T18:41:58.628Z,98524
2018-04-29T18:47:00.943Z,98523
2018-04-29T18:52:03.685Z,98525
2018-04-29T18:57:06.536Z,98526
2018-04-29T19:02:08.643Z,98530
2018-04-29T19:07:10.258Z,98519
2018-04-29T19:12:12.016Z,98512
2018-04-29T19:17:14.039Z,98502
2018-04-29T19:22:16.051Z,98494
2018-04-29T19:27:19.332Z,98488
2018-04-29T19:32:21.241Z,98475
2018-04-29T19:37:23.372Z,98468
2018-04-29T19:42:25.258Z,98463
2018-04-29T19:47:28.687Z,98453
2018-04-29T19:52:30.485Z,98427
2018-04-29T19:57:32.527Z,98409
2018-04-29T20:02:35.051Z,98390
2018-04-29T20:07:36.914Z,98392
2018-04-29T20:12:39.103Z,98387
2018-04-29T20:17:40.926Z,98368
2018-04-29T20:22:43.218Z,98351
2018-04-29T20:27:46.357Z,98353
2018-04-29T20:32:48.529Z,98352
2018-04-29T20:37:50.971Z,98351
2018-04-29T20:42:53.826Z,98353
2018-04-29T20:47:56.003Z,98339
2018-04-29T20:52:58.099Z,98338
2018-04-29T20:58:00.388Z,98324
2018-04-29T21:03:02.504Z,98324
2018-04-29T21:08:05.371Z,98312
2018-04-29T21:13:07.146Z,98312
2018-04-29T21:18:09.643Z,98308
2018-04-29T21:23:11.971Z,98306
2018-04-29T21:28:14.250Z,98291
2018-04-29T21:33:16.540Z,98280
2018-04-29T21:38:19.053Z,98282
2018-04-29T21:43:20.633Z,98270
2018-04-29T21:48:22.172Z,98272
2018-04-29T21:53:23.753Z,98269
2018-04-29T21:58:25.340Z,98265
2018-04-29T22:03:26.880Z,98268
2018-04-29T22:08:28.450Z,98257
2018-04-29T22:13:30.085Z,98285
2018-04-29T22:18:31.644Z,98274
2018-04-29T22:23:33.163Z,98254
2018-04-29T22:28:34.731Z,98253
2018-04-29T22:33:36.278Z,98243
2018-04-29T22:38:38.561Z,98251
2018-04-29T22:43:40.836Z,98246
2018-04-29T22:48:42.355Z,98224
2018-04-29T22:53:43.911Z,98224
2018-04-29T22:58:45.608Z,98225
2018-04-29T23:03:47.124Z,98209
2018-04-29T23:08:49.451Z,98206
2018-04-29T23:13:51.035Z,98192
2018-04-29T23:18:52.757Z,98187
2018-04-29T23:23:55.060Z,98198
2018-04-29T23:28:56.643Z,98236
2018-04-29T23:33:58.200Z,98273
2018-04-29T23:38:59.743Z,98265
2018-04-29T23:44:02.018Z,98296
2018-04-29T23:49:04.419Z,98301
2018-04-29T23:54:06.700Z,98321
2018-04-29T23:59:08.976Z,98342
